Westford, VT (05494)

1:42 PM EST on November 26, 2014 (GMT -0500)
Huntley Rd. | Change Station
CLOSE
Current Station
Personal Weather Station
Location: Westford, VT
Elevation: 518 ft
Nearby Weather Stations
Active Advisory: Winter Storm Warning

Elev 518 ft 44.63 °N, 73.00 °W | Updated 7 seconds ago

Overcast
Overcast
34.2 °F
Feels Like 34 °F
N
1.1
Wind Variable Wind from NNW
Gusts 3.8 mph

Today
High -- | Low -- °F
--% Chance of Precip.
Yesterday
High -- | Low -- °F
Precip. -- in
7:02 AM 4:15 PM
Waxing Crescent, 21% visible
Pressure 30.18 in
Visibility 10.0 miles
Clouds Mostly Cloudy 6000 ft
Mostly Cloudy 10000 ft
Overcast 12000 ft
Windchill 34 °F
Dew Point 13 °F
Humidity 41%
Rainfall 0.00 in
Snow Depth Not available.
UV 1 out of 12
Pollen .10 out of 12
Air Quality Not available.
Flu Activity Not available.
METAR KBTV 261754Z 02007KT 10SM BKN060 BKN100 OVC120 01/M07 A3016 RMK AO2 SLP218 ACSL N SHSN DSNT OBSCG MTNS S T00111072 10028 20011 56021

More Conditions Fewer Conditions

Pressure 30.18 in
Visibility 10.0 miles
Clouds Mostly Cloudy 6000 ft
Mostly Cloudy 10000 ft
Overcast 12000 ft
Windchill 34 °F
Dew Point 13 °F
Humidity 41%
Rainfall 0.00 in
Snow Depth Not available.
UV 1 out of 12
Pollen .10 out of 12
Air Quality Not available.
Flu Activity Not available.
METAR KBTV 261754Z 02007KT 10SM BKN060 BKN100 OVC120 01/M07 A3016 RMK AO2 SLP218 ACSL N SHSN DSNT OBSCG MTNS S T00111072 10028 20011 56021

More Conditions Fewer Conditions

10-Day Weather Forecast

Almanac

Astronomy

Nov. 26, 2014 Rise Set
Actual Time
Civil Twilight
Nautical Twilight
Astronomical Twilight
Moon
Length of Visible Light
Length of Day
Tomorrow will be .
, % of the Moon is Illuminated

Today's Extremes

State Highs State Lows

Community

WunderPhotos

Upload Photos

1,773,827 photos uploaded!

WunderBlogs® & News

Nearby

Air Quality

  Air Quality AQ Index Pollutant
Not available.

Snow Depth

Station Depth Elevation

Earthquake Activity

City Distance Mag. Time & Date
Minimum magnitude displayed is 2.5.

Coastal Water Temperatures

Place Temperature

Nearby Weather Stations